Time;durP1;ratioP1;P1;durP2;ratioP2;P2;SDS_P1;SDS_P2;PMS_P1;PMS_P2;Temp;Humidity;BMP_temperature;BMP_pressure;BME280_temperature;BME280_humidity;BME280_pressure;Samples;Min_cycle;Max_cycle;Signal;HPM_P1;HPM_P2
2023/03/17 00:01:09;;;;;;;21.23;20.00;;;;;;;13.88;53.49;100687.41;5033261;28;20112;-67
2023/03/17 00:03:42;;;;;;;21.42;20.13;;;;;;;13.87;53.54;100685.81;5033323;28;20113;-67
2023/03/17 00:06:15;;;;;;;20.98;19.67;;;;;;;13.85;53.29;100675.19;5048874;28;20084;-67
2023/03/17 00:08:42;;;;;;;21.90;20.50;;;;;;;13.85;53.31;100667.03;5033392;28;20499;-67
2023/03/17 00:11:13;;;;;;;22.20;20.63;;;;;;;13.84;53.38;100665.44;5033295;28;20040;-67
2023/03/17 00:13:38;;;;;;;22.58;21.27;;;;;;;13.83;53.26;100663.78;5033159;28;20030;-67
2023/03/17 00:16:11;;;;;;;22.27;20.98;;;;;;;13.82;53.46;100662.16;5033124;28;20056;-67
2023/03/17 00:18:37;;;;;;;20.98;19.70;;;;;;;13.81;53.45;100650.50;5033139;28;20103;-67
2023/03/17 00:21:03;;;;;;;21.65;20.30;;;;;;;13.81;53.38;100647.78;5033312;28;20454;-67
2023/03/17 00:23:28;;;;;;;21.75;20.35;;;;;;;13.79;53.41;100649.94;5033076;28;20061;-67
2023/03/17 00:25:56;;;;;;;20.65;19.38;;;;;;;13.80;53.40;100653.47;5033017;28;20030;-67
2023/03/17 00:28:24;;;;;;;20.90;19.70;;;;;;;13.79;53.41;100654.56;5033736;28;20033;-67
2023/03/17 00:30:54;;;;;;;;;;;;;;;13.75;53.58;100662.41;5033541;28;20385;-67
2023/03/17 00:33:24;;;;;;;19.92;18.70;;;;;;;13.74;53.37;100657.25;5031403;28;19913;-66
2023/03/17 00:35:51;;;;;;;21.17;19.75;;;;;;;13.72;53.66;100662.94;5032930;28;20036;-67
2023/03/17 00:38:19;;;;;;;19.38;18.25;;;;;;;13.72;53.30;100657.50;5033453;28;20110;-68
2023/03/17 00:40:44;;;;;;;21.23;19.97;;;;;;;13.72;53.02;100660.22;5034296;28;20034;-68
2023/03/17 00:43:11;;;;;;;20.83;19.48;;;;;;;13.71;53.64;100658.59;5036854;28;20347;-67
2023/03/17 00:45:38;;;;;;;20.95;19.63;;;;;;;13.71;53.86;100657.75;5036535;28;20030;-68
2023/03/17 00:48:12;;;;;;;20.48;19.27;;;;;;;13.70;53.48;100646.09;5036548;28;20061;-68
2023/03/17 00:50:37;;;;;;;21.00;19.30;;;;;;;13.68;53.66;100648.25;5036582;28;20036;-68
2023/03/17 00:53:05;;;;;;;22.50;21.20;;;;;;;13.68;53.64;100650.97;5036515;28;20037;-68
2023/03/17 00:55:30;;;;;;;20.60;19.40;;;;;;;13.68;53.60;100645.53;5036099;28;20030;-67
2023/03/17 00:57:56;;;;;;;21.27;19.63;;;;;;;13.67;53.64;100643.09;5036365;28;20116;-67
2023/03/17 01:00:25;;;;;;;21.08;19.67;;;;;;;13.66;53.83;100639.56;5036386;28;20033;-68
2023/03/17 01:02:53;;;;;;;22.73;21.33;;;;;;;13.65;53.55;100646.06;5034938;28;20113;-68
2023/03/17 01:05:20;;;;;;;19.63;18.52;;;;;;;13.65;53.69;100643.34;5036459;28;20033;-67
2023/03/17 01:07:51;;;;;;;21.83;20.42;;;;;;;13.63;53.66;100642.78;5051384;28;20036;-67
2023/03/17 01:10:21;;;;;;;20.42;19.33;;;;;;;13.62;53.50;100644.69;5036660;28;20049;-67
2023/03/17 01:12:47;;;;;;;22.33;20.92;;;;;;;13.60;53.56;100641.44;5036398;28;20029;-68
2023/03/17 01:15:14;;;;;;;21.65;20.40;;;;;;;13.59;53.63;100639.00;5036308;28;20029;-67
2023/03/17 01:17:40;;;;;;;20.70;19.40;;;;;;;13.58;53.58;100640.06;5036007;28;20033;-68
2023/03/17 01:20:10;;;;;;;21.02;19.83;;;;;;;13.56;53.74;100643.06;5036595;28;20112;-67
2023/03/17 01:22:35;;;;;;;20.08;18.98;;;;;;;13.56;53.63;100636.81;5036531;28;20033;-67
2023/03/17 01:25:01;;;;;;;22.02;20.63;;;;;;;13.55;53.65;100637.88;5036618;28;20102;-67
2023/03/17 01:27:27;;;;;;;20.00;18.90;;;;;;;13.53;53.62;100646.31;5035881;28;20029;-67
2023/03/17 01:29:54;;;;;;;20.83;19.50;;;;;;;13.52;53.92;100633.00;5035817;28;20037;-67
2023/03/17 01:32:20;;;;;;;21.33;19.92;;;;;;;13.52;53.57;100624.84;5035771;28;20040;-67
2023/03/17 01:34:46;;;;;;;22.60;21.10;;;;;;;13.50;53.72;100611.53;5035671;28;20159;-67
2023/03/17 01:37:13;;;;;;;20.27;19.08;;;;;;;13.48;53.87;100619.16;5035409;28;20496;-67
2023/03/17 01:39:39;;;;;;;19.80;18.40;;;;;;;13.47;53.74;100619.41;5036313;28;20141;-68
2023/03/17 01:42:06;;;;;;;21.83;20.13;;;;;;;13.47;53.88;100622.13;5035709;28;20388;-67
2023/03/17 01:44:31;;;;;;;21.63;20.40;;;;;;;13.45;53.84;100625.09;5035588;28;20038;-67
2023/03/17 01:46:57;;;;;;;21.95;20.48;;;;;;;13.45;53.76;100627.00;5035987;28;20363;-68
2023/03/17 01:49:36;;;;;;;21.25;20.05;;;;;;;13.44;53.99;100617.22;5035704;28;20040;-67
2023/03/17 01:52:14;;;;;;;21.38;20.17;;;;;;;13.41;53.79;100610.44;5035003;28;20384;-68
2023/03/17 01:54:57;;;;;;;19.42;18.33;;;;;;;13.38;54.18;100603.63;5034817;28;20030;-68
2023/03/17 01:57:31;;;;;;;20.38;19.27;;;;;;;13.35;54.14;100592.50;5035460;28;20093;-68
2023/03/17 02:00:04;;;;;;;22.65;21.23;;;;;;;13.35;54.14;100600.63;5035337;28;20037;-67
2023/03/17 02:02:35;;;;;;;22.15;20.48;;;;;;;13.33;53.95;100592.78;5035397;28;20030;-69
2023/03/17 02:05:02;;;;;;;21.25;19.85;;;;;;;13.34;53.87;100585.44;5035789;28;20026;-67
2023/03/17 02:07:28;;;;;;;19.73;18.63;;;;;;;13.33;54.08;100590.06;5035164;28;20041;-67
2023/03/17 02:09:54;;;;;;;22.33;20.77;;;;;;;13.32;54.05;100582.16;5050046;28;20061;-67
2023/03/17 02:12:22;;;;;;;20.00;18.77;;;;;;;13.30;54.13;100585.13;5035361;28;20050;-67
2023/03/17 02:14:48;;;;;;;21.55;20.25;;;;;;;13.30;53.86;100587.84;5035018;28;20029;-68
2023/03/17 02:17:13;;;;;;;20.52;19.10;;;;;;;13.28;53.94;100581.91;5034961;28;20037;-68
2023/03/17 02:19:39;;;;;;;20.38;19.02;;;;;;;13.28;53.82;100579.19;5049990;28;20412;-68
2023/03/17 02:22:04;;;;;;;20.83;19.63;;;;;;;13.28;54.09;100575.63;5034876;28;20037;-67
2023/03/17 02:24:54;;;;;;;21.38;20.08;;;;;;;13.25;54.07;100568.00;5035029;28;20038;-68
2023/03/17 02:27:30;;;;;;;19.80;18.50;;;;;;;13.23;54.21;100572.88;5034814;28;20084;-67
2023/03/17 02:29:56;;;;;;;21.35;19.98;;;;;;;13.21;54.01;100565.81;5034742;28;20037;-68
2023/03/17 02:32:22;;;;;;;20.25;19.05;;;;;;;13.22;54.00;100569.34;5034712;28;20040;-67
2023/03/17 02:34:48;;;;;;;21.17;19.50;;;;;;;13.20;53.85;100561.50;5034295;28;20034;-67
2023/03/17 02:37:14;;;;;;;19.60;18.35;;;;;;;13.21;53.95;100554.16;5034593;28;20025;-67
2023/03/17 02:39:40;;;;;;;19.95;18.77;;;;;;;13.19;54.07;100549.00;5034870;28;20426;-67
2023/03/17 02:42:06;;;;;;;19.85;18.75;;;;;;;13.20;54.13;100555.22;5034402;28;20132;-67
2023/03/17 02:44:31;;;;;;;20.88;19.67;;;;;;;13.18;54.11;100552.00;5034434;28;20030;-67
2023/03/17 02:46:57;;;;;;;20.63;19.30;;;;;;;13.15;54.34;100553.34;5049621;28;20496;-67
2023/03/17 02:49:24;;;;;;;20.45;19.15;;;;;;;13.16;54.12;100548.72;5034399;28;20076;-67
2023/03/17 02:51:50;;;;;;;22.17;20.67;;;;;;;13.14;53.94;100551.69;5034298;28;20037;-68
2023/03/17 02:54:16;;;;;;;20.73;19.58;;;;;;;13.14;54.09;100556.28;5034538;28;20528;-67
2023/03/17 02:56:41;;;;;;;19.33;18.23;;;;;;;13.11;54.17;100557.63;5034497;28;20038;-67
2023/03/17 02:59:07;;;;;;;21.70;20.23;;;;;;;13.12;54.25;100556.53;5034355;28;20123;-68
2023/03/17 03:01:33;;;;;;;19.98;18.67;;;;;;;13.10;54.24;100560.59;5034240;28;20461;-67
2023/03/17 03:03:59;;;;;;;21.85;20.45;;;;;;;13.09;54.27;100561.69;5033163;28;20039;-67
2023/03/17 03:06:24;;;;;;;20.52;18.98;;;;;;;13.08;54.41;100569.03;5033749;28;20034;-68
2023/03/17 03:08:50;;;;;;;20.35;19.10;;;;;;;13.07;54.32;100567.38;5033604;28;20036;-68
2023/03/17 03:11:16;;;;;;;20.85;19.55;;;;;;;13.06;54.10;100563.03;5034257;28;20041;-68
2023/03/17 03:13:41;;;;;;;19.95;18.75;;;;;;;13.05;53.93;100563.28;5034076;28;20121;-67
2023/03/17 03:16:08;;;;;;;19.35;18.17;;;;;;;13.04;54.25;100577.94;5034213;28;20056;-67
2023/03/17 03:18:34;;;;;;;21.52;20.00;;;;;;;13.03;54.32;100579.00;5033876;28;20038;-68
2023/03/17 03:21:00;;;;;;;20.63;19.30;;;;;;;13.02;54.26;100580.91;5033780;28;20112;-67
2023/03/17 03:23:26;;;;;;;20.20;19.10;;;;;;;12.99;54.18;100576.81;5033759;28;20072;-67
2023/03/17 03:25:51;;;;;;;22.30;20.98;;;;;;;12.99;54.51;100579.53;5034345;28;20397;-68
2023/03/17 03:28:17;;;;;;;19.58;18.35;;;;;;;12.99;54.19;100579.53;5033549;28;20037;-67
2023/03/17 03:30:44;;;;;;;20.73;19.60;;;;;;;12.97;54.29;100570.84;5033573;28;20141;-68
2023/03/17 03:33:11;;;;;;;21.17;19.38;;;;;;;12.96;53.96;100563.78;5033570;28;20041;-67
2023/03/17 03:35:37;;;;;;;18.98;17.88;;;;;;;12.95;53.97;100564.88;5033504;28;20025;-68
2023/03/17 03:38:02;;;;;;;21.40;19.98;;;;;;;12.94;54.01;100570.56;5033373;28;20556;-67
2023/03/17 03:40:28;;;;;;;18.85;17.75;;;;;;;12.94;54.12;100573.28;5033451;28;20124;-68
2023/03/17 03:42:53;;;;;;;19.48;18.33;;;;;;;12.93;54.24;100577.88;5033348;28;20121;-68
2023/03/17 03:45:19;;;;;;;19.92;18.80;;;;;;;12.92;54.14;100584.38;5033424;28;20378;-67
2023/03/17 03:47:44;;;;;;;20.27;19.05;;;;;;;12.93;54.06;100590.63;5048381;28;20029;-68
2023/03/17 03:50:10;;;;;;;20.92;19.58;;;;;;;12.91;54.01;100582.75;5033239;28;20094;-67
2023/03/17 03:52:36;;;;;;;20.00;18.80;;;;;;;12.90;54.19;100583.84;5033872;28;20040;-67
2023/03/17 03:55:02;;;;;;;19.80;18.48;;;;;;;12.89;54.07;100593.03;5033195;28;20128;-68
2023/03/17 03:57:27;;;;;;;19.08;17.98;;;;;;;12.90;53.94;100593.84;5033749;28;20038;-69
2023/03/17 03:59:53;;;;;;;19.83;18.73;;;;;;;12.89;53.88;100590.31;5033638;28;20041;-68
2023/03/17 04:02:18;;;;;;;19.27;18.17;;;;;;;12.88;53.95;100596.84;5033532;28;20458;-68
2023/03/17 04:04:43;;;;;;;18.70;17.60;;;;;;;12.87;53.81;100592.47;5033182;28;20029;-68
2023/03/17 04:07:09;;;;;;;21.02;19.67;;;;;;;12.86;53.79;100596.28;5048972;28;20038;-68
2023/03/17 04:09:35;;;;;;;19.00;17.90;;;;;;;12.85;53.93;100591.94;5033252;28;20223;-68
2023/03/17 04:12:01;;;;;;;19.70;18.48;;;;;;;12.85;53.92;100589.22;5033159;28;20462;-68
2023/03/17 04:14:27;;;;;;;17.98;16.98;;;;;;;12.85;53.89;100593.81;5032949;28;20032;-68
2023/03/17 04:16:53;;;;;;;19.60;18.20;;;;;;;12.84;53.78;100586.75;5036491;28;20037;-68
2023/03/17 04:19:20;;;;;;;19.35;18.25;;;;;;;12.83;53.78;100590.56;5037762;28;20065;-68
2023/03/17 04:21:46;;;;;;;19.52;18.42;;;;;;;12.82;53.72;100597.84;5037271;28;20454;-68
2023/03/17 04:24:12;;;;;;;19.92;18.52;;;;;;;12.81;53.83;100592.72;5037383;28;20036;-68
2023/03/17 04:26:37;;;;;;;20.38;19.27;;;;;;;12.81;53.88;100584.59;5037231;28;20060;-69
2023/03/17 04:29:02;;;;;;;19.98;18.67;;;;;;;12.80;53.71;100586.50;5051938;28;20432;-68
2023/03/17 04:31:28;;;;;;;19.02;17.83;;;;;;;12.80;53.62;100588.34;5037215;28;20108;-68
2023/03/17 04:33:53;;;;;;;18.67;17.52;;;;;;;12.79;53.68;100582.13;5036918;28;20041;-68
2023/03/17 04:36:22;;;;;;;19.00;17.90;;;;;;;12.77;53.38;100582.41;5037289;28;20033;-68
2023/03/17 04:38:47;;;;;;;19.05;17.90;;;;;;;12.77;53.18;100585.13;5036917;28;20033;-68
2023/03/17 04:41:13;;;;;;;20.80;19.50;;;;;;;12.76;53.25;100594.31;5036641;28;20025;-68
2023/03/17 04:43:38;;;;;;;18.38;17.33;;;;;;;12.75;53.25;100584.56;5037242;28;20033;-68
2023/03/17 04:46:04;;;;;;;20.17;18.98;;;;;;;12.75;53.18;100583.72;5037028;28;20441;-68
2023/03/17 04:48:30;;;;;;;19.10;17.98;;;;;;;12.76;53.19;100579.94;5037057;28;20041;-68
2023/03/17 04:50:56;;;;;;;19.75;18.65;;;;;;;12.73;53.19;100581.28;5036584;28;20033;-68
2023/03/17 04:53:21;;;;;;;19.50;18.40;;;;;;;12.74;52.93;100584.81;5036977;28;20112;-68
2023/03/17 04:55:46;;;;;;;19.33;18.13;;;;;;;12.73;52.92;100583.19;5036809;28;20064;-68
2023/03/17 04:58:12;;;;;;;19.75;18.45;;;;;;;12.72;53.15;100587.75;5035138;28;20071;-68
2023/03/17 05:00:37;;;;;;;20.45;19.25;;;;;;;12.71;52.99;100583.44;5036564;28;20026;-68
2023/03/17 05:03:05;;;;;;;19.92;18.63;;;;;;;12.71;52.95;100580.72;5036734;28;20146;-68
2023/03/17 05:05:31;;;;;;;19.67;18.58;;;;;;;12.70;52.89;100579.09;5036494;28;20087;-68
2023/03/17 05:07:56;;;;;;;18.17;16.95;;;;;;;12.70;52.84;100581.81;5036380;28;20033;-68
2023/03/17 05:10:22;;;;;;;18.00;17.00;;;;;;;12.70;52.70;100572.84;5037027;28;20089;-68
2023/03/17 05:12:47;;;;;;;18.23;17.23;;;;;;;12.69;52.95;100577.44;5036813;28;20453;-67
2023/03/17 05:15:13;;;;;;;20.88;19.48;;;;;;;12.69;52.48;100577.44;5036185;28;20037;-67
2023/03/17 05:17:38;;;;;;;17.65;16.67;;;;;;;12.69;52.51;100582.06;5051565;28;20482;-66
2023/03/17 05:20:04;;;;;;;19.17;17.90;;;;;;;12.68;52.66;100592.09;5036472;28;20101;-66
2023/03/17 05:22:30;;;;;;;19.30;18.15;;;;;;;12.67;52.37;100589.63;5035804;28;20071;-67
2023/03/17 05:24:55;;;;;;;19.17;18.08;;;;;;;12.68;52.35;100591.28;5036169;28;20058;-67
2023/03/17 05:27:21;;;;;;;18.42;17.25;;;;;;;12.67;52.43;100597.75;5035495;28;20064;-67
2023/03/17 05:29:47;;;;;;;18.77;17.77;;;;;;;12.67;52.44;100600.47;5035989;28;20339;-67
2023/03/17 05:32:13;;;;;;;19.20;18.00;;;;;;;12.65;52.44;100584.47;5035834;28;20033;-67
2023/03/17 05:34:38;;;;;;;18.65;17.65;;;;;;;12.65;52.39;100579.06;5036204;28;20469;-66
2023/03/17 05:37:04;;;;;;;20.80;19.48;;;;;;;12.64;52.35;100584.72;5051285;28;20037;-68
2023/03/17 05:39:30;;;;;;;18.20;17.00;;;;;;;12.63;52.61;100583.13;5035789;28;20044;-67
2023/03/17 05:41:56;;;;;;;18.90;17.73;;;;;;;12.64;52.40;100584.72;5036004;28;20034;-67
2023/03/17 05:44:22;;;;;;;18.55;17.45;;;;;;;12.63;52.34;100574.97;5035681;28;20468;-67
2023/03/17 05:46:47;;;;;;;18.00;17.00;;;;;;;12.63;52.32;100569.56;5035751;28;20025;-67
2023/03/17 05:49:12;;;;;;;21.02;19.73;;;;;;;12.61;52.66;100574.41;5035512;28;20056;-68
2023/03/17 05:51:38;;;;;;;19.77;18.67;;;;;;;12.61;52.25;100580.66;5035728;28;20114;-67
2023/03/17 05:54:03;;;;;;;17.88;16.95;;;;;;;12.59;52.48;100580.09;5050641;28;20029;-69
2023/03/17 05:56:32;;;;;;;18.83;17.67;;;;;;;12.60;52.38;100578.19;5035597;28;20378;-68
2023/03/17 05:59:01;;;;;;;20.63;19.52;;;;;;;12.59;52.45;100585.50;5035756;28;20056;-68
2023/03/17 06:01:26;;;;;;;;;;;;;;;12.57;52.43;100576.81;5035775;28;20034;-68
2023/03/17 06:03:52;;;;;;;17.00;16.00;;;;;;;12.54;52.56;100583.56;5035710;28;20471;-68
2023/03/17 06:06:17;;;;;;;18.95;17.85;;;;;;;12.53;52.50;100578.44;5035773;28;20037;-68
2023/03/17 06:08:43;;;;;;;18.77;17.70;;;;;;;12.52;52.43;100577.63;5034367;28;20370;-67
2023/03/17 06:11:09;;;;;;;19.45;18.23;;;;;;;12.52;52.43;100571.38;5035722;28;20060;-67
2023/03/17 06:13:35;;;;;;;19.10;18.00;;;;;;;12.53;52.55;100576.53;5035196;28;20032;-67
2023/03/17 06:16:01;;;;;;;18.35;17.20;;;;;;;12.52;52.34;100579.50;5035072;28;20063;-67
2023/03/17 06:18:26;;;;;;;18.38;17.30;;;;;;;12.52;52.51;100585.75;5035639;28;20113;-67
2023/03/17 06:20:53;;;;;;;18.58;17.58;;;;;;;12.52;52.62;100588.47;5033769;28;20467;-68
2023/03/17 06:23:18;;;;;;;19.92;18.73;;;;;;;12.52;52.52;100584.91;5034779;28;20104;-70
2023/03/17 06:25:43;;;;;;;19.00;17.85;;;;;;;12.52;52.62;100591.16;5035017;28;20457;-66
2023/03/17 06:28:09;;;;;;;20.27;19.05;;;;;;;12.53;52.70;100591.97;5035266;28;20038;-68
2023/03/17 06:30:36;;;;;;;17.77;16.40;;;;;;;12.53;52.70;100586.56;5034824;28;20112;-67
2023/03/17 06:33:02;;;;;;;16.63;15.70;;;;;;;12.52;52.62;100580.34;5034795;28;20117;-67
2023/03/17 06:35:28;;;;;;;18.05;16.55;;;;;;;12.53;52.83;100590.09;5034700;28;20090;-67
2023/03/17 06:37:54;;;;;;;18.42;17.25;;;;;;;12.52;52.66;100590.31;5033804;28;20034;-67
2023/03/17 06:40:19;;;;;;;18.63;17.45;;;;;;;12.51;52.66;100580.56;5034496;28;20083;-67
2023/03/17 06:42:45;;;;;;;18.30;17.23;;;;;;;12.50;52.75;100584.38;5034568;28;20033;-67
2023/03/17 06:45:11;;;;;;;18.95;17.80;;;;;;;12.50;52.55;100585.19;5034480;28;20029;-68
2023/03/17 06:47:37;;;;;;;19.88;18.75;;;;;;;12.49;52.41;100580.81;5034474;28;20129;-67
2023/03/17 06:50:04;;;;;;;18.98;17.48;;;;;;;12.49;52.42;100588.94;5034836;28;20035;-67
2023/03/17 06:52:29;;;;;;;18.65;17.65;;;;;;;12.50;52.55;100589.78;5049677;28;20033;-67
2023/03/17 06:54:54;;;;;;;19.55;18.05;;;;;;;12.49;52.58;100588.94;5034342;28;20059;-67
2023/03/17 06:57:20;;;;;;;20.15;18.77;;;;;;;12.49;52.31;100591.66;5034241;28;20041;-67
2023/03/17 06:59:46;;;;;;;18.15;16.85;;;;;;;12.49;52.42;100593.56;5034246;28;20036;-67
2023/03/17 07:02:11;;;;;;;19.25;18.05;;;;;;;12.49;52.23;100598.97;5034184;28;20033;-68
2023/03/17 07:04:37;;;;;;;17.75;16.75;;;;;;;12.48;52.29;100589.22;5034152;28;20117;-74
2023/03/17 07:07:04;;;;;;;17.15;16.15;;;;;;;12.50;52.25;100590.59;5032880;28;20125;-70
2023/03/17 07:09:32;;;;;;;18.88;17.70;;;;;;;12.52;52.12;100576.78;5033662;28;20057;-69
2023/03/17 07:11:57;;;;;;;19.05;17.70;;;;;;;12.55;52.23;100585.22;5034154;28;20032;-68
2023/03/17 07:14:23;;;;;;;20.85;19.35;;;;;;;12.62;51.90;100578.75;5049610;28;20104;-72
2023/03/17 07:16:48;;;;;;;20.30;19.00;;;;;;;12.66;51.81;100577.16;5033689;28;20034;-74
2023/03/17 07:19:15;;;;;;;18.73;17.58;;;;;;;12.68;51.77;100583.16;5049301;28;20044;-76
2023/03/17 07:21:40;;;;;;;18.45;17.33;;;;;;;12.68;51.74;100583.97;5032892;28;20136;-74
2023/03/17 07:24:07;;;;;;;19.48;18.17;;;;;;;12.70;51.50;100570.13;5033893;28;20119;-73
2023/03/17 07:26:32;;;;;;;18.88;17.75;;;;;;;12.71;51.58;100563.66;5033832;28;20029;-75
2023/03/17 07:29:00;;;;;;;18.83;17.73;;;;;;;12.73;51.57;100558.78;5032159;28;20457;-75
2023/03/17 07:31:25;;;;;;;20.85;19.45;;;;;;;12.73;51.36;100569.63;5034477;28;20096;-75
2023/03/17 07:33:51;;;;;;;19.73;18.52;;;;;;;12.74;51.22;100568.53;5049962;28;20036;-74
2023/03/17 07:36:17;;;;;;;18.55;17.35;;;;;;;12.75;51.25;100572.88;5032380;28;20045;-72
2023/03/17 07:38:42;;;;;;;18.95;17.88;;;;;;;12.76;51.34;100580.75;5033668;28;20037;-73
2023/03/17 07:41:11;;;;;;;18.30;17.20;;;;;;;12.78;51.12;100594.06;5033615;28;20465;-74
2023/03/17 07:43:37;;;;;;;16.77;15.88;;;;;;;12.80;51.24;100591.91;5049654;28;20033;-69
2023/03/17 07:46:02;;;;;;;18.73;17.63;;;;;;;12.81;51.11;100596.25;5033730;28;20065;-74
2023/03/17 07:49:12;;;;;;;18.45;17.45;;;;;;;12.70;51.44;100592.66;5061912;28;20451;-69
2023/03/17 07:51:37;;;;;;;20.20;18.92;;;;;;;12.74;51.51;100595.66;5039601;28;20049;-66
2023/03/17 07:54:03;;;;;;;18.92;17.85;;;;;;;12.77;51.44;100597.81;5069013;28;20032;-74
2023/03/17 07:56:31;;;;;;;22.70;20.98;;;;;;;12.79;51.53;100587.53;5048785;28;20555;-67
2023/03/17 07:58:58;;;;;;;18.17;17.15;;;;;;;12.77;51.84;100576.97;5050390;28;20477;-67
2023/03/17 08:01:25;;;;;;;20.83;19.63;;;;;;;12.77;51.41;100581.56;5050123;28;20436;-67
2023/03/17 08:03:52;;;;;;;20.17;19.05;;;;;;;12.77;51.75;100586.97;5055246;28;20120;-67
2023/03/17 08:06:24;;;;;;;19.52;18.08;;;;;;;12.76;51.72;100579.94;5048483;28;20033;-70
2023/03/17 08:08:50;;;;;;;19.08;17.63;;;;;;;12.75;51.75;100576.41;5048860;28;20431;-67
2023/03/17 08:11:16;;;;;;;20.63;19.52;;;;;;;12.76;51.63;100567.19;5051484;28;20128;-67
2023/03/17 08:13:42;;;;;;;19.63;18.52;;;;;;;12.77;52.19;100565.31;5053143;28;20478;-67
2023/03/17 08:16:08;;;;;;;20.85;19.45;;;;;;;12.77;51.92;100552.59;5048738;28;20056;-67
2023/03/17 08:18:33;;;;;;;20.02;18.77;;;;;;;12.78;51.78;100564.25;5030206;28;20078;-67
2023/03/17 08:20:59;;;;;;;19.95;18.75;;;;;;;12.79;51.93;100568.56;5050500;28;20074;-67
2023/03/17 08:23:25;;;;;;;22.85;21.30;;;;;;;12.78;52.02;100566.94;5055999;28;20033;-67
2023/03/17 08:25:58;;;;;;;19.33;18.23;;;;;;;12.77;51.94;100562.59;5046563;28;20457;-67
2023/03/17 08:28:24;;;;;;;22.73;21.33;;;;;;;12.77;52.09;100559.88;5046531;28;20051;-67
2023/03/17 08:30:49;;;;;;;18.88;17.70;;;;;;;12.77;52.14;100557.16;5046530;28;20033;-67
2023/03/17 08:33:15;;;;;;;19.50;18.27;;;;;;;12.77;52.21;100562.59;5058208;28;20106;-71
2023/03/17 08:35:41;;;;;;;20.38;19.05;;;;;;;12.77;51.97;100560.72;5050686;28;20044;-67
2023/03/17 08:38:07;;;;;;;20.27;19.08;;;;;;;12.81;52.15;100571.84;5046928;28;20060;-67
2023/03/17 08:40:33;;;;;;;22.23;20.73;;;;;;;12.83;52.03;100577.81;5046025;28;20042;-67
2023/03/17 08:42:58;;;;;;;19.48;18.30;;;;;;;12.84;52.22;100573.22;5049632;28;20052;-67
2023/03/17 08:45:23;;;;;;;20.75;19.45;;;;;;;12.86;52.14;100577.28;5058275;28;20037;-67
2023/03/17 08:47:49;;;;;;;19.95;18.83;;;;;;;12.86;52.01;100562.94;5047253;28;20053;-67
2023/03/17 08:50:21;;;;;;;20.50;19.17;;;;;;;12.88;52.07;100568.91;5061359;28;20037;-70
2023/03/17 08:52:47;;;;;;;21.55;20.23;;;;;;;12.88;51.98;100569.72;5046309;28;20271;-66
2023/03/17 08:55:14;;;;;;;19.88;18.58;;;;;;;12.88;52.18;100558.88;5057277;28;20385;-66
2023/03/17 08:57:39;;;;;;;22.33;20.75;;;;;;;12.91;52.18;100562.97;5057100;28;20037;-68
2023/03/17 09:00:09;;;;;;;19.45;18.25;;;;;;;12.91;52.26;100555.63;5018315;28;20432;-67
2023/03/17 09:02:36;;;;;;;23.55;21.58;;;;;;;12.93;52.11;100568.94;5032339;28;20042;-67
2023/03/17 09:05:02;;;;;;;20.63;18.80;;;;;;;12.94;52.11;100576.78;5048243;28;20029;-67
2023/03/17 09:07:28;;;;;;;21.98;20.58;;;;;;;12.97;52.13;100570.03;5042049;28;20037;-67
2023/03/17 09:09:53;;;;;;;21.35;20.05;;;;;;;12.98;51.98;100572.50;5034492;28;20119;-67
2023/03/17 09:12:19;;;;;;;21.17;19.80;;;;;;;12.99;52.06;100574.13;5034185;28;20041;-67
2023/03/17 09:14:44;;;;;;;20.58;19.38;;;;;;;13.02;51.89;100580.91;5052140;28;20116;-67
2023/03/17 09:17:12;;;;;;;23.08;21.02;;;;;;;13.03;51.88;100590.69;5034324;28;20040;-67
2023/03/17 09:19:39;;;;;;;21.80;20.23;;;;;;;13.05;52.02;100601.25;5033696;28;20116;-67
2023/03/17 09:22:05;;;;;;;21.63;19.98;;;;;;;13.06;52.15;100617.28;5034257;28;20042;-67
2023/03/17 09:24:31;;;;;;;20.67;19.40;;;;;;;13.08;52.20;100611.56;5049201;28;20033;-67
2023/03/17 09:26:58;;;;;;;20.63;19.35;;;;;;;13.08;52.16;100612.41;5034428;28;20033;-67
2023/03/17 09:29:25;;;;;;;20.30;19.10;;;;;;;13.10;52.19;100612.97;5032790;28;20116;-69
2023/03/17 09:31:50;;;;;;;20.17;18.77;;;;;;;13.11;52.25;100609.16;5034070;28;20034;-67
2023/03/17 09:34:17;;;;;;;20.35;18.95;;;;;;;13.13;52.38;100607.00;5038115;28;20040;-67
2023/03/17 09:36:42;;;;;;;21.20;19.80;;;;;;;13.16;52.45;100605.66;5033167;28;20039;-67
2023/03/17 09:39:07;;;;;;;21.85;20.45;;;;;;;13.17;52.24;100593.72;5015906;28;20416;-67
2023/03/17 09:41:48;;;;;;;22.92;21.42;;;;;;;13.19;52.17;100597.00;5032236;28;20034;-68
2023/03/17 09:44:29;;;;;;;20.13;18.92;;;;;;;13.20;52.58;100601.34;5038657;28;20096;-67
2023/03/17 09:47:08;;;;;;;19.65;18.55;;;;;;;13.22;52.38;100591.03;5035856;28;20072;-67
2023/03/17 09:49:56;;;;;;;20.80;19.45;;;;;;;13.22;52.53;100607.31;5033257;28;20037;-67
2023/03/17 09:52:27;;;;;;;18.83;17.38;;;;;;;13.24;52.47;100602.44;5035550;28;20024;-67
2023/03/17 09:54:53;;;;;;;20.70;19.10;;;;;;;13.25;52.65;100598.66;5049568;28;20167;-67
2023/03/17 09:57:26;;;;;;;20.02;18.88;;;;;;;13.28;52.92;100619.88;5037071;28;20052;-67
2023/03/17 10:00:11;;;;;;;20.92;19.63;;;;;;;13.29;53.06;100626.91;5033890;28;20381;-67
2023/03/17 10:02:36;;;;;;;21.23;19.85;;;;;;;13.32;53.11;100631.81;5014689;28;20393;-67
2023/03/17 10:05:22;;;;;;;22.35;21.02;;;;;;;13.33;52.80;100647.03;5035754;28;20030;-67
2023/03/17 10:07:50;;;;;;;21.15;19.85;;;;;;;13.36;53.00;100646.50;5032303;28;20299;-67
2023/03/17 10:10:27;;;;;;;20.90;19.70;;;;;;;13.38;53.22;100641.63;5032736;28;20029;-67
2023/03/17 10:13:03;;;;;;;21.23;20.13;;;;;;;13.41;52.88;100651.94;5033076;28;20493;-67
2023/03/17 10:16:09;;;;;;;22.17;20.95;;;;;;;13.44;53.10;100657.94;5040278;28;20075;-68
2023/03/17 10:18:59;;;;;;;22.25;20.55;;;;;;;13.47;53.30;100646.53;5026468;28;20060;-67
2023/03/17 10:21:30;;;;;;;21.35;20.02;;;;;;;13.49;53.00;100652.53;5033020;28;20553;-67
2023/03/17 10:23:57;;;;;;;22.35;20.90;;;;;;;13.50;53.29;100649.53;5032831;28;20033;-67
2023/03/17 10:26:33;;;;;;;22.15;20.60;;;;;;;13.54;53.41;100652.56;5043484;28;20095;-67
2023/03/17 10:29:02;;;;;;;23.15;21.55;;;;;;;13.57;53.31;100655.53;5046368;28;20037;-67
2023/03/17 10:31:31;;;;;;;22.13;20.65;;;;;;;13.60;53.36;100663.16;5031574;28;20108;-66
2023/03/17 10:33:57;;;;;;;;;;;;;;;13.58;53.35;100659.91;5033093;28;20040;-66
2023/03/17 10:36:43;;;;;;;19.75;18.60;;;;;;;13.62;53.25;100639.28;5041266;28;19919;-66
2023/03/17 10:39:11;;;;;;;21.35;20.05;;;;;;;13.66;53.42;100641.44;5040420;28;20470;-67
2023/03/17 10:41:40;;;;;;;21.75;20.33;;;;;;;13.67;53.50;100637.66;5047423;28;20033;-66
2023/03/17 10:44:20;;;;;;;21.15;19.85;;;;;;;13.71;53.38;100628.72;5034386;28;20028;-66
2023/03/17 10:46:53;;;;;;;23.38;21.95;;;;;;;13.74;53.21;100636.34;5030155;28;20420;-66
2023/03/17 10:49:21;;;;;;;22.58;21.02;;;;;;;13.79;53.28;100624.69;5032710;28;20107;-66
2023/03/17 10:51:51;;;;;;;23.25;21.25;;;;;;;13.81;53.42;100631.47;5043396;28;20155;-66
2023/03/17 10:54:18;;;;;;;21.67;20.33;;;;;;;13.85;53.42;100629.84;5035204;28;20033;-66
2023/03/17 10:56:47;;;;;;;24.02;22.38;;;;;;;13.87;53.51;100623.34;5042317;28;20018;-67
2023/03/17 10:59:27;;;;;;;22.25;20.60;;;;;;;13.90;53.51;100628.25;5032638;28;20108;-67
2023/03/17 11:01:57;;;;;;;22.48;20.92;;;;;;;13.94;53.28;100622.00;5045757;28;20226;-67
2023/03/17 11:04:32;;;;;;;22.02;20.67;;;;;;;13.97;53.50;100615.22;5027152;28;20382;-67
2023/03/17 11:07:04;;;;;;;24.08;22.25;;;;;;;14.00;53.67;100629.06;5032062;28;20034;-67
2023/03/17 11:09:34;;;;;;;24.17;22.67;;;;;;;14.04;53.79;100621.22;5032265;28;20040;-67
2023/03/17 11:12:18;;;;;;;24.48;22.92;;;;;;;14.07;53.69;100620.69;5041262;28;20033;-67